15
Owner Name: Mark, Alice N
Registered Name:    Ragapple Lady Throws the Gauntlet   CR,CRX,CRX II,CRX III   Call Name:  Gale
AKC Registration:   HP45773806 CKC Registration:   Sex:   F Dog DOB:   Jul-19-2013 Deceased Dt:  
Name Registration Number Registration Type DOB
Sire: Shoreline's Ragapple Kinetic Energy USA
Dam: Shannon Down Cinnamon Girl USA
Dog Active?: Yes    Meets Run: 27    Color:   Red Brindle With:   White Markings Breeder:   Alice Mark
Spay/Neuter: No AKC Disqualifications: No Legacy CR Points:  0.000 ARM Points:  0.000 NPR Points:  0.000
Date
(* indicates not verified)
Club Race Type Grade at Meet Start Place-
ment/ Entry
Meet Points WRCh Points WRChX Points Accum. CR Points Accum. WRCh Accum. WRChX Scr/ DQ WRChX by Year
04-26-14 JRRWA Puppy N 3/4 6.000 0.000 0.000 0.000 0.000 0.000 SCR 4 0.000
07-05-14 JRRWA Puppy N 1/1 5.000 0.000 0.000 0.000 0.000 0.000 SCR 2 0.000
11-16-14 JRRWA Adult D 17/26 4.000 0.000 0.000 0.000 0.000 0.000 SCR 2 0.000
03-15-15 JRRWA Adult C 16/30 5.000 0.000 0.000 0.000 0.000 0.000 PSCR 3 0.000
05-09-15 EWA Adult C 15/26 5.000 0.000 0.000 5.000 0.000 0.000 C 4 0.000
05-23-15 JRRWA Adult C 10/20 9.000 0.000 0.000 14.000 0.000 0.000 C 4 0.000
07-04-15 JRRWA Adult C 10/33 11.000 0.000 0.000 25.000 0.000 0.000 C 4 0.000
09-12-15 EWA Adult C 15/22 3.000 0.000 0.000 25.000 0.000 0.000 SCR 3 0.000
10-10-15 EWA Adult B 5/22 13.000 0.000 0.000 38.000 0.000 0.000 C 4 0.000
11-14-15 JRRWA Adult B 8/24 11.000 0.000 0.000 49.000 0.000 0.000 C 4 0.000
11-15-15 JRRWA Adult B 16/30 6.000 0.000 0.000 55.000 0.000 0.000 C 4 0.000
03-12-16 JRRWA Adult B 14/30 8.000 0.000 0.000 63.000 0.000 0.000 C 4 0.000
05-07-16 EWA Adult C 6/21 13.000 0.000 0.000 76.000 0.000 0.000 C 4 0.000
07-02-16 JRRWA Adult C 16/40 7.000 0.000 0.000 83.000 0.000 0.000 C 4 0.000
09-03-16 JRRWA Adult C 21/30 3.000 0.000 0.000 83.000 0.000 0.000 SCR 3 0.000
09-04-16 JRRWA Adult B 6/25 13.000 0.000 0.000 96.000 0.000 0.000 C 4 0.000
09-17-16 EWA Adult B 9/23 12.000 0.000 0.000 108.000 0.000 0.000 C 4 0.000
10-15-16 EWA Adult B 5/22 14.000 0.000 0.000 122.000 0.000 0.000 C 4 0.000
10-22-16 SOL Adult B 60/99 5.000 0.000 0.000 127.000 0.000 0.000 C 4 0.000
05-06-17 EWA Adult B 15/25 7.000 0.000 0.000 134.000 0.000 0.000 C 4 0.000
05-27-17 JRRWA Adult C 10/25 10.000 0.000 0.000 144.000 0.000 0.000 C 4 0.000
06-11-17 NWC Adult C 9/16 10.000 0.000 0.000 154.000 0.000 0.000 C 4 0.000
06-17-17 EWA Adult C 8/25 11.000 0.000 0.000 165.000 0.000 0.000 C 4 0.000
07-01-17 JRRWA Adult B 14/40 10.000 0.000 0.000 175.000 0.000 0.000 C 4 0.000
09-09-17 JRRWA Adult B 9/31 11.000 0.000 0.000 186.000 0.000 0.000 C 4 0.000
09-10-17 JRRWA Adult B 8/31 13.000 0.000 0.000 199.000 0.000 0.000 C 4 0.000
09-16-17 EWA Adult B 14/31 8.000 0.000 0.000 207.000 0.000 0.000 C 4 0.000
WRA Awards
Date Award Club
09/10/2017 CRX 3 JRRWA
05/27/2017 CRX 2 JRRWA
05/07/2016 CRX EWA
07/04/2015 CR JRRWA






©1998-2017 Whippet Racing Association. All rights reserved. No information provided by this website is to be used without permission from an authorized representative of the WRA.
Logged in as UUnknown (15)